createdAt,value
2023-05-16T00:02:32.492Z,101031.63
2023-05-16T00:07:25.043Z,101004.84
2023-05-16T00:12:17.933Z,101011.84
2023-05-16T00:17:13.084Z,100978.91
2023-05-16T00:22:06.041Z,101027.38
2023-05-16T00:26:57.867Z,100968.66
2023-05-16T00:31:49.933Z,101024.53
2023-05-16T00:36:43.008Z,101013.88
2023-05-16T00:41:35.677Z,101029.84
2023-05-16T00:46:28.913Z,100978.00
2023-05-16T00:51:21.552Z,101013.22
2023-05-16T00:56:13.446Z,101004.63
2023-05-16T01:01:05.745Z,100976.06
2023-05-16T01:05:59.394Z,101033.63
2023-05-16T01:11:06.552Z,101010.06
2023-05-16T01:16:13.529Z,101040.03
2023-05-16T01:21:18.053Z,101003.31
2023-05-16T01:26:22.685Z,101016.88
2023-05-16T01:31:14.639Z,100989.47
2023-05-16T01:36:41.423Z,101026.06
2023-05-16T01:42:14.490Z,101043.72
2023-05-16T01:47:11.594Z,101053.63
2023-05-16T01:52:17.310Z,101047.19
2023-05-16T01:57:11.050Z,101050.81
2023-05-16T02:02:03.652Z,101084.38
2023-05-16T02:06:57.108Z,101045.78
2023-05-16T02:11:50.537Z,101090.44
2023-05-16T02:16:42.575Z,101097.31
2023-05-16T02:21:35.101Z,101083.53
2023-05-16T02:26:27.016Z,101099.88
2023-05-16T02:31:30.108Z,101048.06
2023-05-16T02:36:22.143Z,101105.13
2023-05-16T02:41:14.295Z,101056.63
2023-05-16T02:46:24.239Z,101138.19
2023-05-16T02:51:16.244Z,101147.06
2023-05-16T02:56:12.096Z,101119.59
2023-05-16T03:01:05.335Z,101116.06
2023-05-16T03:05:58.126Z,101028.59
2023-05-16T03:10:51.457Z,101132.69
2023-05-16T03:15:44.073Z,101164.66
2023-05-16T03:20:36.177Z,101148.03
2023-05-16T03:25:28.304Z,101172.78
2023-05-16T03:30:20.864Z,101130.25
2023-05-16T03:35:13.138Z,101077.13
2023-05-16T03:40:05.973Z,101079.53
2023-05-16T03:44:58.248Z,101130.81
2023-05-16T03:49:50.146Z,101193.56
2023-05-16T03:54:44.105Z,101205.88
2023-05-16T03:59:36.376Z,101100.88
2023-05-16T04:04:30.552Z,101214.34
2023-05-16T04:09:22.544Z,101158.59
2023-05-16T04:14:15.654Z,101170.59
2023-05-16T04:19:09.999Z,101159.22
2023-05-16T04:24:02.125Z,101167.28
2023-05-16T04:28:54.081Z,101237.09
2023-05-16T04:33:46.353Z,101245.53
2023-05-16T04:38:38.142Z,101255.22
2023-05-16T04:43:31.184Z,101221.63
2023-05-16T04:48:23.028Z,101228.38
2023-05-16T04:53:15.230Z,101251.94
2023-05-16T04:58:07.067Z,101222.72
2023-05-16T05:02:59.316Z,101280.59
2023-05-16T05:07:51.406Z,101202.03
2023-05-16T05:12:46.255Z,101240.72
2023-05-16T05:17:38.321Z,101303.22
2023-05-16T05:22:31.912Z,101233.63
2023-05-16T05:27:23.843Z,101323.28
2023-05-16T05:32:16.068Z,101287.84
2023-05-16T05:37:08.066Z,101329.38
2023-05-16T05:42:04.905Z,101317.09
2023-05-16T05:46:58.356Z,101337.16
2023-05-16T05:51:52.310Z,101343.34
2023-05-16T05:56:44.261Z,101315.28
2023-05-16T06:01:36.792Z,101237.72
2023-05-16T06:06:29.280Z,101363.09
2023-05-16T06:11:22.968Z,101299.13
2023-05-16T06:16:16.169Z,101307.13
2023-05-16T06:21:11.420Z,101315.19
2023-05-16T06:26:05.680Z,101365.81
2023-05-16T06:30:57.968Z,101375.06
2023-05-16T06:35:50.394Z,101377.34
2023-05-16T06:40:42.806Z,101315.34
2023-05-16T06:45:34.902Z,101305.19
2023-05-16T06:50:27.300Z,101380.38
2023-05-16T06:55:19.351Z,101314.50
2023-05-16T07:00:12.053Z,101376.81
2023-05-16T07:05:04.186Z,101333.59
2023-05-16T07:09:57.629Z,101331.28
2023-05-16T07:14:49.692Z,101380.75
2023-05-16T07:19:42.179Z,101334.97
2023-05-16T07:24:35.789Z,101379.44
2023-05-16T07:29:28.512Z,101390.34
2023-05-16T07:34:20.806Z,101343.81
2023-05-16T07:39:14.986Z,101301.66
2023-05-16T07:44:06.906Z,101348.06
2023-05-16T07:48:59.069Z,101308.00
2023-05-16T07:53:52.103Z,101408.94
2023-05-16T07:58:44.214Z,101418.41
2023-05-16T08:03:36.944Z,101411.72
2023-05-16T08:08:29.670Z,101422.84
2023-05-16T08:13:21.770Z,101405.75
2023-05-16T08:18:18.845Z,101423.16
2023-05-16T08:23:12.650Z,101432.59
2023-05-16T08:28:06.100Z,101343.78
2023-05-16T08:32:58.120Z,101421.16
2023-05-16T08:37:51.317Z,101351.22
2023-05-16T08:42:45.857Z,101425.63
2023-05-16T08:47:41.684Z,101346.22
2023-05-16T08:52:36.467Z,101412.88
2023-05-16T08:57:30.869Z,101394.06
2023-05-16T09:02:23.059Z,101397.34
2023-05-16T09:07:15.330Z,101384.06
2023-05-16T09:12:08.275Z,101338.16
2023-05-16T09:17:06.502Z,101392.69
2023-05-16T09:21:58.551Z,101397.38
2023-05-16T09:26:53.322Z,101375.69
2023-05-16T09:31:45.491Z,101416.59
2023-05-16T09:36:37.835Z,101392.94
2023-05-16T09:41:35.224Z,101416.09
2023-05-16T09:46:28.854Z,101405.31
2023-05-16T09:51:24.099Z,101362.59
2023-05-16T09:56:16.952Z,101389.88
2023-05-16T10:01:10.695Z,101367.50
2023-05-16T10:06:04.499Z,101326.22
2023-05-16T10:10:57.154Z,101283.88
2023-05-16T10:16:00.685Z,101391.75
2023-05-16T10:20:55.615Z,101412.00
2023-05-16T10:25:49.746Z,101358.22
2023-05-16T10:30:45.268Z,101392.03
2023-05-16T10:35:39.030Z,101377.31
2023-05-16T10:40:31.941Z,101383.50
2023-05-16T10:45:24.579Z,101402.66
2023-05-16T10:50:42.970Z,101332.50
2023-05-16T10:55:36.352Z,101334.09
2023-05-16T11:00:30.481Z,101399.16
2023-05-16T11:05:26.590Z,101391.00
2023-05-16T11:10:20.370Z,101346.22
2023-05-16T11:15:29.351Z,101373.56
2023-05-16T11:20:27.269Z,101329.94
2023-05-16T11:25:36.317Z,101376.19
2023-05-16T11:30:29.974Z,101375.38
2023-05-16T11:35:25.249Z,101349.19
2023-05-16T11:40:17.691Z,101379.00
2023-05-16T11:45:19.367Z,101414.34
2023-05-16T11:50:13.358Z,101378.59
2023-05-16T11:55:11.982Z,101333.59
2023-05-16T12:00:18.329Z,101371.75
2023-05-16T12:05:10.905Z,101340.59
2023-05-16T12:10:12.411Z,101418.53
2023-05-16T12:15:06.814Z,101421.47
2023-05-16T12:19:59.019Z,101427.06
2023-05-16T12:24:52.000Z,101404.75
2023-05-16T12:29:49.306Z,101310.28
2023-05-16T12:34:50.231Z,101327.00
2023-05-16T12:39:42.188Z,101373.97
2023-05-16T12:44:36.870Z,101400.34
2023-05-16T12:49:28.935Z,101403.91
2023-05-16T12:54:23.127Z,101362.66
2023-05-16T12:59:16.191Z,101421.50
2023-05-16T13:04:09.188Z,101340.53
2023-05-16T13:09:02.232Z,101424.75
2023-05-16T13:13:54.244Z,101294.03
2023-05-16T13:18:46.400Z,101429.63
2023-05-16T13:23:38.934Z,101376.84
2023-05-16T13:28:32.341Z,101428.91
2023-05-16T13:33:24.808Z,101402.66
2023-05-16T13:38:16.936Z,101377.06
2023-05-16T13:43:10.793Z,101423.50
2023-05-16T13:48:02.739Z,101362.34
2023-05-16T13:52:54.612Z,101294.25
2023-05-16T13:57:46.873Z,101397.75
2023-05-16T14:02:40.723Z,101364.47
2023-05-16T14:07:32.779Z,101351.06
2023-05-16T14:12:25.000Z,101423.97
2023-05-16T14:17:18.144Z,101415.00
2023-05-16T14:22:11.475Z,101417.97
2023-05-16T14:27:03.946Z,101412.03
2023-05-16T14:31:56.683Z,101391.19
2023-05-16T14:36:48.888Z,101400.56
2023-05-16T14:41:40.723Z,101369.59
2023-05-16T14:46:32.899Z,101370.06
2023-05-16T14:51:25.601Z,101389.75
2023-05-16T14:56:18.651Z,101383.53
2023-05-16T15:01:10.849Z,101409.19
2023-05-16T15:06:05.386Z,101382.28
2023-05-16T15:10:59.196Z,101432.56
2023-05-16T15:15:51.594Z,101388.78
2023-05-16T15:20:44.135Z,101394.56
2023-05-16T15:25:40.447Z,101432.34
2023-05-16T15:30:33.414Z,101322.00
2023-05-16T15:35:26.314Z,101363.09
2023-05-16T15:40:21.268Z,101419.00
2023-05-16T15:45:16.840Z,101472.84
2023-05-16T15:50:09.506Z,101459.72
2023-05-16T15:55:06.032Z,101397.69
2023-05-16T15:59:59.342Z,101476.91
2023-05-16T16:04:51.976Z,101479.75
2023-05-16T16:09:44.363Z,101431.53
2023-05-16T16:14:36.411Z,101389.72
2023-05-16T16:19:29.925Z,101468.03
2023-05-16T16:24:21.837Z,101482.44
2023-05-16T16:29:15.900Z,101434.13
2023-05-16T16:34:07.942Z,101442.66
2023-05-16T16:39:00.799Z,101469.88
2023-05-16T16:43:52.952Z,101495.97
2023-05-16T16:48:46.529Z,101475.13
2023-05-16T16:53:38.378Z,101460.06
2023-05-16T16:58:33.321Z,101278.59
2023-05-16T17:03:25.428Z,101503.69
2023-05-16T17:08:18.133Z,101453.16
2023-05-16T17:13:12.305Z,101446.72
2023-05-16T17:18:08.637Z,101530.59
2023-05-16T17:23:03.412Z,101443.66
2023-05-16T17:27:56.222Z,101549.19
2023-05-16T17:32:48.478Z,101551.66
2023-05-16T17:37:41.794Z,101517.97
2023-05-16T17:42:35.490Z,101522.53
2023-05-16T17:47:27.375Z,101565.34
2023-05-16T17:52:20.234Z,101550.72
2023-05-16T17:57:12.142Z,101540.41
2023-05-16T18:02:04.214Z,101561.56
2023-05-16T18:06:57.041Z,101546.41
2023-05-16T18:11:49.562Z,101568.69
2023-05-16T18:16:42.033Z,101551.06
2023-05-16T18:21:33.997Z,101274.22
2023-05-16T18:26:29.869Z,101584.03
2023-05-16T18:31:22.701Z,101593.94
2023-05-16T18:36:14.650Z,101572.28
2023-05-16T18:41:07.405Z,101590.13
2023-05-16T18:46:00.067Z,101530.03
2023-05-16T18:50:53.475Z,101577.66
2023-05-16T18:55:45.447Z,101581.34
2023-05-16T19:00:37.378Z,101598.59
2023-05-16T19:05:29.632Z,101612.41
2023-05-16T19:10:22.100Z,101561.28
2023-05-16T19:15:13.939Z,101611.19
2023-05-16T19:20:06.644Z,101553.44
2023-05-16T19:24:59.627Z,101519.00
2023-05-16T19:29:52.404Z,101570.06
2023-05-16T19:34:44.539Z,101607.34
2023-05-16T19:39:37.561Z,101538.25
2023-05-16T19:44:31.063Z,101577.97
2023-05-16T19:49:22.952Z,101635.09
2023-05-16T19:54:15.992Z,101520.41
2023-05-16T19:59:08.836Z,101628.44
2023-05-16T20:04:01.951Z,101604.91
2023-05-16T20:08:53.944Z,101626.81
2023-05-16T20:13:45.929Z,101647.66
2023-05-16T20:18:38.181Z,101565.19
2023-05-16T20:23:31.042Z,101659.44
2023-05-16T20:28:23.157Z,101615.84
2023-05-16T20:33:15.169Z,101510.56
2023-05-16T20:38:07.116Z,101524.53
2023-05-16T20:42:59.150Z,101665.81
2023-05-16T20:47:51.497Z,101670.03
2023-05-16T20:52:44.022Z,101653.50
2023-05-16T20:57:37.675Z,101597.09
2023-05-16T21:02:29.778Z,101678.16
2023-05-16T21:07:21.792Z,101648.09
2023-05-16T21:12:14.407Z,101618.00
2023-05-16T21:17:06.403Z,101684.03
2023-05-16T21:21:59.136Z,101590.00
2023-05-16T21:26:52.375Z,101611.59
2023-05-16T21:31:44.214Z,101640.13
2023-05-16T21:36:36.804Z,101674.53
2023-05-16T21:41:28.685Z,101642.22
2023-05-16T21:46:21.022Z,101682.16
2023-05-16T21:51:13.790Z,101609.47
2023-05-16T21:56:06.604Z,101684.13
2023-05-16T22:01:00.337Z,101658.56
2023-05-16T22:05:52.227Z,101685.75
2023-05-16T22:10:44.143Z,101492.88
2023-05-16T22:15:36.115Z,101683.03
2023-05-16T22:20:29.803Z,101691.75
2023-05-16T22:25:21.814Z,101694.88
2023-05-16T22:30:13.798Z,101681.13
2023-05-16T22:35:06.142Z,101672.53
2023-05-16T22:40:01.417Z,101662.38
2023-05-16T22:44:54.199Z,101644.91
2023-05-16T22:49:46.012Z,101653.44
2023-05-16T22:54:37.918Z,101672.69
2023-05-16T22:59:30.584Z,101700.09
2023-05-16T23:04:25.915Z,101717.75
2023-05-16T23:09:17.872Z,101674.41
2023-05-16T23:14:09.886Z,101696.66
2023-05-16T23:19:03.182Z,101653.41
2023-05-16T23:23:56.133Z,101735.00
2023-05-16T23:28:48.295Z,101740.59
2023-05-16T23:33:43.530Z,101743.03
2023-05-16T23:38:36.796Z,101704.47
2023-05-16T23:43:29.601Z,101724.63
2023-05-16T23:48:23.145Z,101736.44
2023-05-16T23:53:15.502Z,101643.66
2023-05-16T23:58:07.347Z,101754.34
